sensor_id;sensor_type;location;lat;lon;timestamp;pressure;altitude;pressure_sealevel;temperature;humidity
32873;BME280;19224;52.462;16.898;2022-08-24T00:01:44;100526.22;;;20.09;100.00
32873;BME280;19224;52.462;16.898;2022-08-24T00:04:14;100523.48;;;20.09;100.00
32873;BME280;19224;52.462;16.898;2022-08-24T00:06:44;100535.31;;;20.15;100.00
32873;BME280;19224;52.462;16.898;2022-08-24T00:09:15;100531.95;;;20.22;100.00
32873;BME280;19224;52.462;16.898;2022-08-24T00:11:45;100541.27;;;20.31;100.00
32873;BME280;19224;52.462;16.898;2022-08-24T00:14:16;100541.05;;;20.34;100.00
32873;BME280;19224;52.462;16.898;2022-08-24T00:16:47;100542.27;;;20.30;100.00
32873;BME280;19224;52.462;16.898;2022-08-24T00:19:17;100541.41;;;20.24;100.00
32873;BME280;19224;52.462;16.898;2022-08-24T00:21:48;100543.89;;;20.21;100.00
32873;BME280;19224;52.462;16.898;2022-08-24T00:24:19;100549.73;;;20.17;100.00
32873;BME280;19224;52.462;16.898;2022-08-24T00:26:49;100539.78;;;20.16;100.00
32873;BME280;19224;52.462;16.898;2022-08-24T00:29:22;100552.20;;;20.14;100.00
32873;BME280;19224;52.462;16.898;2022-08-24T00:31:53;100540.16;;;20.17;100.00
32873;BME280;19224;52.462;16.898;2022-08-24T00:34:23;100543.99;;;20.09;100.00
32873;BME280;19224;52.462;16.898;2022-08-24T00:36:55;100541.77;;;20.03;100.00
32873;BME280;19224;52.462;16.898;2022-08-24T00:39:26;100531.89;;;19.95;100.00
32873;BME280;19224;52.462;16.898;2022-08-24T00:41:56;100535.73;;;19.98;100.00
32873;BME280;19224;52.462;16.898;2022-08-24T00:44:26;100533.88;;;19.93;100.00
32873;BME280;19224;52.462;16.898;2022-08-24T00:47:14;100538.82;;;19.88;100.00
32873;BME280;19224;52.462;16.898;2022-08-24T00:50:00;100537.23;;;19.91;100.00
32873;BME280;19224;52.462;16.898;2022-08-24T00:52:42;100538.47;;;19.98;100.00
32873;BME280;19224;52.462;16.898;2022-08-24T00:55:18;100540.61;;;20.00;100.00
32873;BME280;19224;52.462;16.898;2022-08-24T00:57:51;100546.23;;;20.04;100.00
32873;BME280;19224;52.462;16.898;2022-08-24T01:00:31;100549.61;;;20.07;100.00
32873;BME280;19224;52.462;16.898;2022-08-24T01:03:04;100549.83;;;20.10;100.00
32873;BME280;19224;52.462;16.898;2022-08-24T01:05:37;100550.23;;;20.11;100.00
32873;BME280;19224;52.462;16.898;2022-08-24T01:08:10;100553.81;;;20.06;100.00
32873;BME280;19224;52.462;16.898;2022-08-24T01:10:48;100544.72;;;20.00;100.00
32873;BME280;19224;52.462;16.898;2022-08-24T01:13:19;100550.03;;;19.96;100.00
32873;BME280;19224;52.462;16.898;2022-08-24T01:15:51;100553.77;;;19.95;100.00
32873;BME280;19224;52.462;16.898;2022-08-24T01:18:24;100552.49;;;19.88;100.00
32873;BME280;19224;52.462;16.898;2022-08-24T01:21:39;100553.36;;;19.83;100.00
32873;BME280;19224;52.462;16.898;2022-08-24T01:24:11;100556.83;;;19.79;100.00
32873;BME280;19224;52.462;16.898;2022-08-24T01:26:49;100554.99;;;19.85;100.00
32873;BME280;19224;52.462;16.898;2022-08-24T01:29:24;100548.52;;;19.81;100.00
32873;BME280;19224;52.462;16.898;2022-08-24T01:31:54;100550.26;;;19.82;100.00
32873;BME280;19224;52.462;16.898;2022-08-24T01:34:25;100544.41;;;19.81;100.00
32873;BME280;19224;52.462;16.898;2022-08-24T01:36:56;100545.05;;;19.84;100.00
32873;BME280;19224;52.462;16.898;2022-08-24T01:39:35;100540.33;;;19.86;100.00
32873;BME280;19224;52.462;16.898;2022-08-24T01:42:05;100530.50;;;19.84;100.00
32873;BME280;19224;52.462;16.898;2022-08-24T01:44:38;100528.02;;;19.81;100.00
32873;BME280;19224;52.462;16.898;2022-08-24T01:47:12;100537.58;;;19.81;100.00
32873;BME280;19224;52.462;16.898;2022-08-24T01:49:46;100521.43;;;19.78;100.00
32873;BME280;19224;52.462;16.898;2022-08-24T01:52:22;100518.80;;;19.76;100.00
32873;BME280;19224;52.462;16.898;2022-08-24T01:54:53;100523.39;;;19.76;100.00
32873;BME280;19224;52.462;16.898;2022-08-24T01:57:27;100522.38;;;19.71;100.00
32873;BME280;19224;52.462;16.898;2022-08-24T01:59:57;100524.37;;;19.69;100.00
32873;BME280;19224;52.462;16.898;2022-08-24T02:02:30;100525.72;;;19.64;100.00
32873;BME280;19224;52.462;16.898;2022-08-24T02:05:01;100525.08;;;19.60;100.00
32873;BME280;19224;52.462;16.898;2022-08-24T02:07:31;100535.03;;;19.56;100.00
32873;BME280;19224;52.462;16.898;2022-08-24T02:10:02;100527.42;;;19.54;100.00
32873;BME280;19224;52.462;16.898;2022-08-24T02:12:36;100533.30;;;19.55;100.00
32873;BME280;19224;52.462;16.898;2022-08-24T02:15:08;100531.77;;;19.51;100.00
32873;BME280;19224;52.462;16.898;2022-08-24T02:17:39;100539.11;;;19.51;100.00
32873;BME280;19224;52.462;16.898;2022-08-24T02:20:09;100529.41;;;19.52;100.00
32873;BME280;19224;52.462;16.898;2022-08-24T02:22:40;100529.03;;;19.51;100.00
32873;BME280;19224;52.462;16.898;2022-08-24T02:25:10;100533.14;;;19.51;100.00
32873;BME280;19224;52.462;16.898;2022-08-24T02:27:40;100536.48;;;19.49;100.00
32873;BME280;19224;52.462;16.898;2022-08-24T02:30:11;100545.05;;;19.50;100.00
32873;BME280;19224;52.462;16.898;2022-08-24T02:32:41;100547.39;;;19.44;100.00
32873;BME280;19224;52.462;16.898;2022-08-24T02:35:11;100546.91;;;19.44;100.00
32873;BME280;19224;52.462;16.898;2022-08-24T02:37:41;100539.92;;;19.40;100.00
32873;BME280;19224;52.462;16.898;2022-08-24T02:40:13;100533.84;;;19.42;100.00
32873;BME280;19224;52.462;16.898;2022-08-24T02:42:44;100539.09;;;19.45;100.00
32873;BME280;19224;52.462;16.898;2022-08-24T02:45:14;100536.95;;;19.43;100.00
32873;BME280;19224;52.462;16.898;2022-08-24T02:47:45;100539.84;;;19.47;100.00
32873;BME280;19224;52.462;16.898;2022-08-24T02:50:17;100545.30;;;19.47;100.00
32873;BME280;19224;52.462;16.898;2022-08-24T02:52:47;100547.06;;;19.53;100.00
32873;BME280;19224;52.462;16.898;2022-08-24T02:55:19;100549.69;;;19.55;100.00
32873;BME280;19224;52.462;16.898;2022-08-24T02:57:49;100547.09;;;19.59;100.00
32873;BME280;19224;52.462;16.898;2022-08-24T03:00:21;100551.80;;;19.57;100.00
32873;BME280;19224;52.462;16.898;2022-08-24T03:02:52;100548.19;;;19.56;100.00
32873;BME280;19224;52.462;16.898;2022-08-24T03:05:24;100555.28;;;19.59;100.00
32873;BME280;19224;52.462;16.898;2022-08-24T03:07:54;100545.22;;;19.65;100.00
32873;BME280;19224;52.462;16.898;2022-08-24T03:10:25;100551.47;;;19.67;100.00
32873;BME280;19224;52.462;16.898;2022-08-24T03:12:55;100556.31;;;19.69;100.00
32873;BME280;19224;52.462;16.898;2022-08-24T03:15:27;100560.54;;;19.73;100.00
32873;BME280;19224;52.462;16.898;2022-08-24T03:17:57;100566.13;;;19.77;100.00
32873;BME280;19224;52.462;16.898;2022-08-24T03:20:28;100570.50;;;19.79;100.00
32873;BME280;19224;52.462;16.898;2022-08-24T03:22:58;100574.73;;;19.78;100.00
32873;BME280;19224;52.462;16.898;2022-08-24T03:25:29;100575.48;;;19.80;100.00
32873;BME280;19224;52.462;16.898;2022-08-24T03:27:59;100585.17;;;19.84;100.00
32873;BME280;19224;52.462;16.898;2022-08-24T03:30:30;100584.80;;;19.83;100.00
32873;BME280;19224;52.462;16.898;2022-08-24T03:33:00;100587.43;;;19.84;100.00
32873;BME280;19224;52.462;16.898;2022-08-24T03:35:32;100591.97;;;19.73;100.00
32873;BME280;19224;52.462;16.898;2022-08-24T03:38:03;100595.58;;;19.68;100.00
32873;BME280;19224;52.462;16.898;2022-08-24T03:40:33;100601.48;;;19.56;100.00
32873;BME280;19224;52.462;16.898;2022-08-24T03:43:04;100596.60;;;19.49;100.00
32873;BME280;19224;52.462;16.898;2022-08-24T03:45:34;100600.64;;;19.38;100.00
32873;BME280;19224;52.462;16.898;2022-08-24T03:48:04;100601.50;;;19.33;100.00
32873;BME280;19224;52.462;16.898;2022-08-24T03:50:34;100615.54;;;19.34;100.00
32873;BME280;19224;52.462;16.898;2022-08-24T03:53:04;100620.08;;;19.28;100.00
32873;BME280;19224;52.462;16.898;2022-08-24T03:55:35;100621.83;;;19.29;100.00
32873;BME280;19224;52.462;16.898;2022-08-24T03:58:05;100624.18;;;19.28;100.00
32873;BME280;19224;52.462;16.898;2022-08-24T04:00:35;100624.80;;;19.26;100.00
32873;BME280;19224;52.462;16.898;2022-08-24T04:03:13;100630.02;;;19.29;100.00
32873;BME280;19224;52.462;16.898;2022-08-24T04:05:39;100625.03;;;19.23;100.00
32873;BME280;19224;52.462;16.898;2022-08-24T04:08:10;100628.28;;;19.16;100.00
32873;BME280;19224;52.462;16.898;2022-08-24T04:10:45;100624.48;;;19.18;100.00
32873;BME280;19224;52.462;16.898;2022-08-24T04:13:16;100625.13;;;19.09;100.00
32873;BME280;19224;52.462;16.898;2022-08-24T04:15:47;100631.14;;;19.14;100.00
32873;BME280;19224;52.462;16.898;2022-08-24T04:18:19;100630.02;;;19.11;100.00
32873;BME280;19224;52.462;16.898;2022-08-24T04:20:49;100627.86;;;19.09;100.00
32873;BME280;19224;52.462;16.898;2022-08-24T04:23:19;100622.20;;;19.12;100.00
32873;BME280;19224;52.462;16.898;2022-08-24T04:25:49;100624.41;;;19.13;100.00
32873;BME280;19224;52.462;16.898;2022-08-24T04:28:20;100618.92;;;19.20;100.00
32873;BME280;19224;52.462;16.898;2022-08-24T04:30:51;100618.95;;;19.25;100.00
32873;BME280;19224;52.462;16.898;2022-08-24T04:33:21;100624.08;;;19.30;100.00
32873;BME280;19224;52.462;16.898;2022-08-24T04:35:52;100628.07;;;19.37;100.00
32873;BME280;19224;52.462;16.898;2022-08-24T04:38:22;100630.73;;;19.44;100.00
32873;BME280;19224;52.462;16.898;2022-08-24T04:40:53;100633.02;;;19.50;100.00
32873;BME280;19224;52.462;16.898;2022-08-24T04:43:23;100632.05;;;19.56;100.00
32873;BME280;19224;52.462;16.898;2022-08-24T04:45:54;100632.45;;;19.62;100.00
32873;BME280;19224;52.462;16.898;2022-08-24T04:48:24;100636.04;;;19.63;100.00
32873;BME280;19224;52.462;16.898;2022-08-24T04:50:59;100630.12;;;19.69;100.00
32873;BME280;19224;52.462;16.898;2022-08-24T04:53:26;100639.70;;;19.74;100.00
32873;BME280;19224;52.462;16.898;2022-08-24T04:55:57;100634.37;;;19.78;100.00
32873;BME280;19224;52.462;16.898;2022-08-24T04:58:29;100633.40;;;19.85;100.00
32873;BME280;19224;52.462;16.898;2022-08-24T05:00:59;100641.87;;;19.87;100.00
32873;BME280;19224;52.462;16.898;2022-08-24T05:03:30;100635.53;;;19.92;100.00
32873;BME280;19224;52.462;16.898;2022-08-24T05:06:00;100639.90;;;19.95;100.00
32873;BME280;19224;52.462;16.898;2022-08-24T05:08:30;100641.91;;;19.98;100.00
32873;BME280;19224;52.462;16.898;2022-08-24T05:11:04;100640.48;;;19.82;100.00
32873;BME280;19224;52.462;16.898;2022-08-24T05:13:37;100641.67;;;19.67;100.00
32873;BME280;19224;52.462;16.898;2022-08-24T05:16:12;100641.10;;;19.56;100.00
32873;BME280;19224;52.462;16.898;2022-08-24T05:18:43;100640.30;;;19.67;100.00
32873;BME280;19224;52.462;16.898;2022-08-24T05:21:18;100638.80;;;19.68;100.00
32873;BME280;19224;52.462;16.898;2022-08-24T05:23:48;100639.73;;;19.80;100.00
32873;BME280;19224;52.462;16.898;2022-08-24T05:26:24;100644.84;;;19.84;100.00
32873;BME280;19224;52.462;16.898;2022-08-24T05:28:56;100641.02;;;19.98;100.00
32873;BME280;19224;52.462;16.898;2022-08-24T05:31:29;100640.81;;;20.01;100.00
32873;BME280;19224;52.462;16.898;2022-08-24T05:34:02;100641.45;;;20.04;100.00
32873;BME280;19224;52.462;16.898;2022-08-24T05:36:35;100638.80;;;19.97;100.00
32873;BME280;19224;52.462;16.898;2022-08-24T05:39:12;100640.97;;;20.05;100.00
32873;BME280;19224;52.462;16.898;2022-08-24T05:41:45;100645.23;;;20.25;100.00
32873;BME280;19224;52.462;16.898;2022-08-24T05:44:17;100646.03;;;20.33;100.00
32873;BME280;19224;52.462;16.898;2022-08-24T05:46:47;100649.90;;;20.47;100.00
32873;BME280;19224;52.462;16.898;2022-08-24T05:49:18;100646.80;;;20.51;100.00
32873;BME280;19224;52.462;16.898;2022-08-24T05:51:48;100655.76;;;20.59;100.00
32873;BME280;19224;52.462;16.898;2022-08-24T05:54:18;100652.14;;;20.64;100.00
32873;BME280;19224;52.462;16.898;2022-08-24T05:56:50;100651.03;;;20.72;100.00
32873;BME280;19224;52.462;16.898;2022-08-24T05:59:21;100656.03;;;20.67;100.00
32873;BME280;19224;52.462;16.898;2022-08-24T06:01:51;100662.62;;;20.75;100.00
32873;BME280;19224;52.462;16.898;2022-08-24T06:04:21;100658.52;;;20.81;100.00
32873;BME280;19224;52.462;16.898;2022-08-24T06:06:51;100648.81;;;20.93;100.00
32873;BME280;19224;52.462;16.898;2022-08-24T06:09:21;100652.92;;;20.99;100.00
32873;BME280;19224;52.462;16.898;2022-08-24T06:11:51;100654.44;;;21.03;100.00
32873;BME280;19224;52.462;16.898;2022-08-24T06:14:22;100652.70;;;21.02;100.00
32873;BME280;19224;52.462;16.898;2022-08-24T06:16:52;100656.80;;;21.02;100.00
32873;BME280;19224;52.462;16.898;2022-08-24T06:19:23;100658.66;;;21.07;100.00
32873;BME280;19224;52.462;16.898;2022-08-24T06:22:13;100651.42;;;21.17;100.00
32873;BME280;19224;52.462;16.898;2022-08-24T06:24:43;100669.59;;;21.29;100.00
32873;BME280;19224;52.462;16.898;2022-08-24T06:27:31;100663.38;;;21.16;100.00
32873;BME280;19224;52.462;16.898;2022-08-24T06:30:05;100670.50;;;21.13;100.00
32873;BME280;19224;52.462;16.898;2022-08-24T06:32:38;100675.59;;;21.23;100.00
32873;BME280;19224;52.462;16.898;2022-08-24T06:35:09;100676.59;;;21.27;100.00
32873;BME280;19224;52.462;16.898;2022-08-24T06:37:39;100676.30;;;21.41;100.00
32873;BME280;19224;52.462;16.898;2022-08-24T06:40:10;100674.53;;;21.57;100.00
32873;BME280;19224;52.462;16.898;2022-08-24T06:42:40;100677.63;;;21.74;100.00
32873;BME280;19224;52.462;16.898;2022-08-24T06:45:12;100685.06;;;21.89;100.00
32873;BME280;19224;52.462;16.898;2022-08-24T06:47:43;100674.96;;;21.84;100.00
32873;BME280;19224;52.462;16.898;2022-08-24T06:50:13;100682.92;;;21.87;100.00
32873;BME280;19224;52.462;16.898;2022-08-24T06:52:43;100681.88;;;21.99;100.00
32873;BME280;19224;52.462;16.898;2022-08-24T06:55:14;100685.50;;;21.99;100.00
32873;BME280;19224;52.462;16.898;2022-08-24T06:57:44;100685.06;;;22.14;100.00
32873;BME280;19224;52.462;16.898;2022-08-24T07:00:16;100685.42;;;22.15;100.00
32873;BME280;19224;52.462;16.898;2022-08-24T07:02:46;100688.48;;;22.27;100.00
32873;BME280;19224;52.462;16.898;2022-08-24T07:05:17;100692.45;;;22.34;100.00
32873;BME280;19224;52.462;16.898;2022-08-24T07:07:47;100687.78;;;22.20;100.00
32873;BME280;19224;52.462;16.898;2022-08-24T07:10:17;100685.73;;;22.27;100.00
32873;BME280;19224;52.462;16.898;2022-08-24T07:12:47;100687.78;;;22.46;100.00
32873;BME280;19224;52.462;16.898;2022-08-24T07:15:18;100690.33;;;22.58;100.00
32873;BME280;19224;52.462;16.898;2022-08-24T07:17:49;100689.13;;;22.72;100.00
32873;BME280;19224;52.462;16.898;2022-08-24T07:20:19;100694.10;;;22.87;100.00
32873;BME280;19224;52.462;16.898;2022-08-24T07:22:49;100696.00;;;22.87;100.00
32873;BME280;19224;52.462;16.898;2022-08-24T07:25:20;100695.78;;;22.99;100.00
32873;BME280;19224;52.462;16.898;2022-08-24T07:27:50;100685.42;;;23.12;100.00
32873;BME280;19224;52.462;16.898;2022-08-24T07:30:20;100688.88;;;23.20;100.00
32873;BME280;19224;52.462;16.898;2022-08-24T07:32:50;100686.44;;;23.11;100.00
32873;BME280;19224;52.462;16.898;2022-08-24T07:35:20;100688.16;;;23.18;100.00
32873;BME280;19224;52.462;16.898;2022-08-24T07:37:51;100685.36;;;23.23;100.00
32873;BME280;19224;52.462;16.898;2022-08-24T07:40:22;100693.14;;;23.33;100.00
32873;BME280;19224;52.462;16.898;2022-08-24T07:42:54;100692.92;;;23.40;100.00
32873;BME280;19224;52.462;16.898;2022-08-24T07:45:27;100699.62;;;23.47;100.00
32873;BME280;19224;52.462;16.898;2022-08-24T07:47:58;100701.48;;;23.47;100.00
32873;BME280;19224;52.462;16.898;2022-08-24T07:50:30;100700.73;;;23.84;100.00
32873;BME280;19224;52.462;16.898;2022-08-24T07:53:00;100699.72;;;23.85;100.00
32873;BME280;19224;52.462;16.898;2022-08-24T07:55:30;100703.05;;;23.64;100.00
32873;BME280;19224;52.462;16.898;2022-08-24T07:58:01;100705.42;;;23.54;100.00
32873;BME280;19224;52.462;16.898;2022-08-24T08:00:34;100699.86;;;23.59;100.00
32873;BME280;19224;52.462;16.898;2022-08-24T08:03:04;100698.13;;;23.43;100.00
32873;BME280;19224;52.462;16.898;2022-08-24T08:05:38;100697.66;;;23.53;100.00
32873;BME280;19224;52.462;16.898;2022-08-24T08:08:09;100695.56;;;23.51;100.00
32873;BME280;19224;52.462;16.898;2022-08-24T08:10:40;100698.71;;;23.37;100.00
32873;BME280;19224;52.462;16.898;2022-08-24T08:13:10;100696.70;;;23.49;100.00
32873;BME280;19224;52.462;16.898;2022-08-24T08:15:40;100698.78;;;23.41;100.00
32873;BME280;19224;52.462;16.898;2022-08-24T08:18:11;100694.95;;;23.38;100.00
32873;BME280;19224;52.462;16.898;2022-08-24T08:20:42;100701.53;;;23.41;100.00
32873;BME280;19224;52.462;16.898;2022-08-24T08:23:13;100701.33;;;23.97;100.00
32873;BME280;19224;52.462;16.898;2022-08-24T08:26:01;100706.28;;;24.32;100.00
32873;BME280;19224;52.462;16.898;2022-08-24T08:28:31;100716.47;;;23.97;100.00
32873;BME280;19224;52.462;16.898;2022-08-24T08:31:03;100722.42;;;24.02;100.00
32873;BME280;19224;52.462;16.898;2022-08-24T08:33:34;100716.56;;;24.11;100.00
32873;BME280;19224;52.462;16.898;2022-08-24T08:36:13;100714.46;;;24.09;100.00
32873;BME280;19224;52.462;16.898;2022-08-24T08:38:47;100716.84;;;24.17;100.00
32873;BME280;19224;52.462;16.898;2022-08-24T08:44:59;100726.93;;;24.32;100.00
32873;BME280;19224;52.462;16.898;2022-08-24T08:51:27;100726.89;;;24.56;100.00
32873;BME280;19224;52.462;16.898;2022-08-24T08:57:45;100727.16;;;24.34;100.00
32873;BME280;19224;52.462;16.898;2022-08-24T09:00:19;100723.14;;;24.42;100.00
32873;BME280;19224;52.462;16.898;2022-08-24T09:12:02;100731.73;;;24.58;100.00
32873;BME280;19224;52.462;16.898;2022-08-24T09:14:45;100727.80;;;24.42;100.00
32873;BME280;19224;52.462;16.898;2022-08-24T09:17:50;100721.33;;;24.47;100.00
32873;BME280;19224;52.462;16.898;2022-08-24T09:23:50;100723.80;;;24.40;100.00
32873;BME280;19224;52.462;16.898;2022-08-24T09:26:26;100718.16;;;24.23;100.00
32873;BME280;19224;52.462;16.898;2022-08-24T09:29:09;100716.58;;;24.90;100.00
32873;BME280;19224;52.462;16.898;2022-08-24T09:34:34;100719.33;;;25.13;100.00
32873;BME280;19224;52.462;16.898;2022-08-24T09:37:52;100715.91;;;25.02;100.00
32873;BME280;19224;52.462;16.898;2022-08-24T09:40:41;100716.22;;;25.12;100.00
32873;BME280;19224;52.462;16.898;2022-08-24T09:49:47;100728.56;;;25.95;96.19
32873;BME280;19224;52.462;16.898;2022-08-24T09:52:35;100735.72;;;25.61;98.93
32873;BME280;19224;52.462;16.898;2022-08-24T10:01:32;100735.52;;;25.45;99.91
32873;BME280;19224;52.462;16.898;2022-08-24T10:13:22;100735.30;;;25.83;95.75
32873;BME280;19224;52.462;16.898;2022-08-24T10:16:11;100727.19;;;25.95;95.01
32873;BME280;19224;52.462;16.898;2022-08-24T10:22:02;100722.33;;;26.24;93.33
32873;BME280;19224;52.462;16.898;2022-08-24T10:31:07;100722.80;;;26.37;90.78
32873;BME280;19224;52.462;16.898;2022-08-24T10:40:12;100723.23;;;26.46;90.08
32873;BME280;19224;52.462;16.898;2022-08-24T10:46:47;100722.02;;;25.96;93.29
32873;BME280;19224;52.462;16.898;2022-08-24T10:49:51;100726.80;;;25.90;93.43
32873;BME280;19224;52.462;16.898;2022-08-24T10:52:46;100727.91;;;25.70;93.51
32873;BME280;19224;52.462;16.898;2022-08-24T10:55:20;100730.70;;;25.74;93.59
32873;BME280;19224;52.462;16.898;2022-08-24T11:00:36;100724.57;;;26.59;90.21
32873;BME280;19224;52.462;16.898;2022-08-24T11:03:17;100728.38;;;27.23;87.78
32873;BME280;19224;52.462;16.898;2022-08-24T11:05:55;100721.39;;;27.40;86.24
32873;BME280;19224;52.462;16.898;2022-08-24T11:08:28;100720.38;;;27.16;87.74
32873;BME280;19224;52.462;16.898;2022-08-24T11:11:15;100724.84;;;27.75;85.93
32873;BME280;19224;52.462;16.898;2022-08-24T11:14:07;100734.45;;;27.63;83.73
32873;BME280;19224;52.462;16.898;2022-08-24T11:16:42;100716.98;;;27.26;85.80
32873;BME280;19224;52.462;16.898;2022-08-24T11:19:29;100722.73;;;27.36;86.32
32873;BME280;19224;52.462;16.898;2022-08-24T11:22:05;100726.09;;;27.51;85.13
32873;BME280;19224;52.462;16.898;2022-08-24T11:24:44;100726.50;;;27.64;82.67
32873;BME280;19224;52.462;16.898;2022-08-24T11:27:34;100728.22;;;27.57;83.66
32873;BME280;19224;52.462;16.898;2022-08-24T11:30:20;100723.92;;;27.67;83.91
32873;BME280;19224;52.462;16.898;2022-08-24T11:32:52;100730.42;;;27.83;83.22
32873;BME280;19224;52.462;16.898;2022-08-24T11:35:28;100726.78;;;27.49;81.20
32873;BME280;19224;52.462;16.898;2022-08-24T11:38:14;100728.28;;;27.11;83.17
32873;BME280;19224;52.462;16.898;2022-08-24T11:40:49;100726.16;;;27.09;84.83
32873;BME280;19224;52.462;16.898;2022-08-24T11:43:46;100722.56;;;27.34;83.47
32873;BME280;19224;52.462;16.898;2022-08-24T11:46:34;100731.09;;;27.15;83.93
32873;BME280;19224;52.462;16.898;2022-08-24T11:49:25;100728.52;;;27.17;85.89
32873;BME280;19224;52.462;16.898;2022-08-24T11:54:57;100721.53;;;27.35;85.08
32873;BME280;19224;52.462;16.898;2022-08-24T11:57:20;100724.38;;;27.84;81.01
32873;BME280;19224;52.462;16.898;2022-08-24T12:00:06;100727.91;;;28.10;80.61
32873;BME280;19224;52.462;16.898;2022-08-24T12:02:49;100723.98;;;28.32;79.12
32873;BME280;19224;52.462;16.898;2022-08-24T12:05:51;100727.12;;;28.53;77.09
32873;BME280;19224;52.462;16.898;2022-08-24T12:08:33;100723.66;;;28.75;75.49
32873;BME280;19224;52.462;16.898;2022-08-24T12:11:30;100725.57;;;28.79;73.53
32873;BME280;19224;52.462;16.898;2022-08-24T12:14:18;100724.39;;;28.93;74.10
32873;BME280;19224;52.462;16.898;2022-08-24T12:17:13;100725.65;;;29.53;71.89
32873;BME280;19224;52.462;16.898;2022-08-24T12:20:20;100729.23;;;29.70;71.07
32873;BME280;19224;52.462;16.898;2022-08-24T12:22:49;100723.33;;;28.58;75.79
32873;BME280;19224;52.462;16.898;2022-08-24T12:25:21;100724.97;;;28.19;78.79
32873;BME280;19224;52.462;16.898;2022-08-24T12:28:13;100730.58;;;27.82;80.81
32873;BME280;19224;52.462;16.898;2022-08-24T12:30:45;100725.00;;;27.37;82.00
32873;BME280;19224;52.462;16.898;2022-08-24T12:33:17;100730.59;;;27.48;82.09
32873;BME280;19224;52.462;16.898;2022-08-24T12:35:53;100732.03;;;27.64;81.71
32873;BME280;19224;52.462;16.898;2022-08-24T12:38:37;100734.88;;;27.76;80.80
32873;BME280;19224;52.462;16.898;2022-08-24T12:41:23;100729.80;;;27.68;79.08
32873;BME280;19224;52.462;16.898;2022-08-24T12:44:11;100728.72;;;27.98;77.95
32873;BME280;19224;52.462;16.898;2022-08-24T12:46:40;100730.14;;;28.02;78.14
32873;BME280;19224;52.462;16.898;2022-08-24T12:49:29;100723.42;;;28.21;76.19
32873;BME280;19224;52.462;16.898;2022-08-24T12:58:05;100728.36;;;28.63;77.00
32873;BME280;19224;52.462;16.898;2022-08-24T13:00:45;100725.21;;;28.82;75.49
32873;BME280;19224;52.462;16.898;2022-08-24T13:03:34;100726.81;;;29.00;74.77
32873;BME280;19224;52.462;16.898;2022-08-24T13:09:06;100725.45;;;29.63;72.85
32873;BME280;19224;52.462;16.898;2022-08-24T13:11:36;100723.34;;;30.03;69.63
32873;BME280;19224;52.462;16.898;2022-08-24T13:14:23;100723.95;;;29.83;70.13
32873;BME280;19224;52.462;16.898;2022-08-24T13:19:39;100719.19;;;28.66;74.10
32873;BME280;19224;52.462;16.898;2022-08-24T13:24:58;100723.88;;;27.92;75.62
32873;BME280;19224;52.462;16.898;2022-08-24T13:30:29;100718.47;;;28.48;74.17
32873;BME280;19224;52.462;16.898;2022-08-24T13:33:06;100719.19;;;28.66;74.62
32873;BME280;19224;52.462;16.898;2022-08-24T13:35:52;100724.89;;;28.53;75.69
32873;BME280;19224;52.462;16.898;2022-08-24T13:38:40;100725.41;;;28.60;76.03
32873;BME280;19224;52.462;16.898;2022-08-24T13:50:09;100724.77;;;28.01;78.66
32873;BME280;19224;52.462;16.898;2022-08-24T14:16:52;100716.51;;;29.25;73.64
32873;BME280;19224;52.462;16.898;2022-08-24T14:20:02;100706.52;;;28.44;76.17
32873;BME280;19224;52.462;16.898;2022-08-24T14:23:05;100710.03;;;27.96;78.30
32873;BME280;19224;52.462;16.898;2022-08-24T14:25:33;100711.34;;;27.76;80.45
32873;BME280;19224;52.462;16.898;2022-08-24T14:28:44;100714.15;;;27.80;79.55
32873;BME280;19224;52.462;16.898;2022-08-24T14:31:24;100714.15;;;27.80;79.58
32873;BME280;19224;52.462;16.898;2022-08-24T14:34:23;100710.33;;;28.75;76.65
32873;BME280;19224;52.462;16.898;2022-08-24T14:37:04;100715.51;;;29.72;70.55
32873;BME280;19224;52.462;16.898;2022-08-24T14:39:55;100709.91;;;30.15;67.77
32873;BME280;19224;52.462;16.898;2022-08-24T14:51:50;100707.20;;;28.58;77.88
32873;BME280;19224;52.462;16.898;2022-08-24T14:57:40;100706.27;;;29.80;72.71
32873;BME280;19224;52.462;16.898;2022-08-24T15:00:21;100696.36;;;29.35;74.29
32873;BME280;19224;52.462;16.898;2022-08-24T15:06:24;100697.69;;;28.92;76.02
32873;BME280;19224;52.462;16.898;2022-08-24T15:09:04;100696.24;;;28.24;79.48
32873;BME280;19224;52.462;16.898;2022-08-24T15:11:26;100696.52;;;27.97;81.51
32873;BME280;19224;52.462;16.898;2022-08-24T15:14:24;100695.58;;;28.42;79.20
32873;BME280;19224;52.462;16.898;2022-08-24T15:17:07;100699.84;;;27.59;83.03
32873;BME280;19224;52.462;16.898;2022-08-24T15:20:02;100693.17;;;27.41;84.62
32873;BME280;19224;52.462;16.898;2022-08-24T15:22:43;100686.59;;;27.34;85.95
32873;BME280;19224;52.462;16.898;2022-08-24T15:25:39;100682.84;;;27.47;86.08
32873;BME280;19224;52.462;16.898;2022-08-24T15:28:27;100687.08;;;27.70;84.45
32873;BME280;19224;52.462;16.898;2022-08-24T15:31:09;100690.85;;;28.27;81.28
32873;BME280;19224;52.462;16.898;2022-08-24T15:33:59;100701.44;;;28.27;80.24
32873;BME280;19224;52.462;16.898;2022-08-24T15:36:32;100692.72;;;27.94;80.93